sensor_id;sensor_type;location;lat;lon;timestamp;P1;durP1;ratioP1;P2;durP2;ratioP2
59854;SDS011;45732;52.850;6.896;2023-12-04T00:02:14;27.17;;;18.85;;
59854;SDS011;45732;52.850;6.896;2023-12-04T00:04:40;27.83;;;18.95;;
59854;SDS011;45732;52.850;6.896;2023-12-04T00:07:05;29.67;;;19.65;;
59854;SDS011;45732;52.850;6.896;2023-12-04T00:09:31;26.23;;;18.40;;
59854;SDS011;45732;52.850;6.896;2023-12-04T00:11:57;28.15;;;19.80;;
59854;SDS011;45732;52.850;6.896;2023-12-04T00:14:22;27.92;;;18.83;;
59854;SDS011;45732;52.850;6.896;2023-12-04T00:16:48;28.63;;;19.20;;
59854;SDS011;45732;52.850;6.896;2023-12-04T00:19:14;27.08;;;18.60;;
59854;SDS011;45732;52.850;6.896;2023-12-04T00:21:39;27.63;;;18.80;;
59854;SDS011;45732;52.850;6.896;2023-12-04T00:24:05;27.33;;;18.88;;
59854;SDS011;45732;52.850;6.896;2023-12-04T00:26:31;27.95;;;19.10;;
59854;SDS011;45732;52.850;6.896;2023-12-04T00:28:56;25.27;;;17.88;;
59854;SDS011;45732;52.850;6.896;2023-12-04T00:31:22;27.55;;;18.92;;
59854;SDS011;45732;52.850;6.896;2023-12-04T00:33:48;26.70;;;17.48;;
59854;SDS011;45732;52.850;6.896;2023-12-04T00:36:14;28.45;;;19.27;;
59854;SDS011;45732;52.850;6.896;2023-12-04T00:38:39;24.42;;;17.25;;
59854;SDS011;45732;52.850;6.896;2023-12-04T00:41:05;25.30;;;17.40;;
59854;SDS011;45732;52.850;6.896;2023-12-04T00:43:31;26.58;;;17.90;;
59854;SDS011;45732;52.850;6.896;2023-12-04T00:45:56;27.27;;;18.25;;
59854;SDS011;45732;52.850;6.896;2023-12-04T00:48:22;26.85;;;18.02;;
59854;SDS011;45732;52.850;6.896;2023-12-04T00:50:48;25.88;;;17.42;;
59854;SDS011;45732;52.850;6.896;2023-12-04T00:53:13;25.95;;;16.80;;
59854;SDS011;45732;52.850;6.896;2023-12-04T00:55:39;24.45;;;17.10;;
59854;SDS011;45732;52.850;6.896;2023-12-04T00:58:05;26.00;;;16.98;;
59854;SDS011;45732;52.850;6.896;2023-12-04T01:00:30;27.55;;;18.05;;
59854;SDS011;45732;52.850;6.896;2023-12-04T01:02:56;28.02;;;18.40;;
59854;SDS011;45732;52.850;6.896;2023-12-04T01:05:22;26.17;;;17.77;;
59854;SDS011;45732;52.850;6.896;2023-12-04T01:07:47;28.13;;;18.67;;
59854;SDS011;45732;52.850;6.896;2023-12-04T01:10:13;27.05;;;17.90;;
59854;SDS011;45732;52.850;6.896;2023-12-04T01:12:39;29.20;;;19.13;;
59854;SDS011;45732;52.850;6.896;2023-12-04T01:15:04;28.92;;;18.33;;
59854;SDS011;45732;52.850;6.896;2023-12-04T01:17:30;25.58;;;17.38;;
59854;SDS011;45732;52.850;6.896;2023-12-04T01:19:56;29.80;;;18.80;;
59854;SDS011;45732;52.850;6.896;2023-12-04T01:22:22;26.30;;;17.95;;
59854;SDS011;45732;52.850;6.896;2023-12-04T01:24:48;26.23;;;18.30;;
59854;SDS011;45732;52.850;6.896;2023-12-04T01:27:14;25.65;;;18.08;;
59854;SDS011;45732;52.850;6.896;2023-12-04T01:29:40;28.08;;;19.25;;
59854;SDS011;45732;52.850;6.896;2023-12-04T01:32:05;25.55;;;18.55;;
59854;SDS011;45732;52.850;6.896;2023-12-04T01:34:31;28.90;;;18.83;;
59854;SDS011;45732;52.850;6.896;2023-12-04T01:36:57;25.75;;;17.88;;
59854;SDS011;45732;52.850;6.896;2023-12-04T01:39:22;28.35;;;18.13;;
59854;SDS011;45732;52.850;6.896;2023-12-04T01:41:48;25.17;;;17.67;;
59854;SDS011;45732;52.850;6.896;2023-12-04T01:44:14;26.48;;;17.83;;
59854;SDS011;45732;52.850;6.896;2023-12-04T01:46:40;25.85;;;17.92;;
59854;SDS011;45732;52.850;6.896;2023-12-04T01:49:07;24.83;;;17.33;;
59854;SDS011;45732;52.850;6.896;2023-12-04T01:51:33;25.40;;;16.73;;
59854;SDS011;45732;52.850;6.896;2023-12-04T01:54:00;25.67;;;17.35;;
59854;SDS011;45732;52.850;6.896;2023-12-04T01:56:30;25.52;;;17.75;;
59854;SDS011;45732;52.850;6.896;2023-12-04T01:58:56;24.17;;;16.85;;
59854;SDS011;45732;52.850;6.896;2023-12-04T02:01:22;23.67;;;16.00;;
59854;SDS011;45732;52.850;6.896;2023-12-04T02:03:49;25.10;;;16.75;;
59854;SDS011;45732;52.850;6.896;2023-12-04T02:06:16;25.17;;;18.17;;
59854;SDS011;45732;52.850;6.896;2023-12-04T02:08:42;25.38;;;17.27;;
59854;SDS011;45732;52.850;6.896;2023-12-04T02:11:08;25.77;;;17.27;;
59854;SDS011;45732;52.850;6.896;2023-12-04T02:13:34;22.65;;;16.15;;
59854;SDS011;45732;52.850;6.896;2023-12-04T02:16:02;24.58;;;16.67;;
59854;SDS011;45732;52.850;6.896;2023-12-04T02:18:33;23.40;;;16.40;;
59854;SDS011;45732;52.850;6.896;2023-12-04T02:21:02;24.65;;;16.58;;
59854;SDS011;45732;52.850;6.896;2023-12-04T02:23:28;24.52;;;16.63;;
59854;SDS011;45732;52.850;6.896;2023-12-04T02:26:05;22.90;;;15.82;;
59854;SDS011;45732;52.850;6.896;2023-12-04T02:28:35;24.35;;;16.08;;
59854;SDS011;45732;52.850;6.896;2023-12-04T02:31:03;25.63;;;16.80;;
59854;SDS011;45732;52.850;6.896;2023-12-04T02:33:30;24.90;;;16.92;;
59854;SDS011;45732;52.850;6.896;2023-12-04T02:35:58;21.13;;;15.13;;
59854;SDS011;45732;52.850;6.896;2023-12-04T02:38:25;23.95;;;16.58;;
59854;SDS011;45732;52.850;6.896;2023-12-04T02:40:52;24.77;;;16.95;;
59854;SDS011;45732;52.850;6.896;2023-12-04T02:43:18;23.42;;;16.00;;
59854;SDS011;45732;52.850;6.896;2023-12-04T02:45:44;22.88;;;15.80;;
59854;SDS011;45732;52.850;6.896;2023-12-04T02:48:09;23.95;;;15.85;;
59854;SDS011;45732;52.850;6.896;2023-12-04T02:50:35;23.48;;;16.60;;
59854;SDS011;45732;52.850;6.896;2023-12-04T02:53:01;22.70;;;15.98;;
59854;SDS011;45732;52.850;6.896;2023-12-04T02:55:26;22.98;;;16.10;;
59854;SDS011;45732;52.850;6.896;2023-12-04T02:57:53;23.33;;;16.15;;
59854;SDS011;45732;52.850;6.896;2023-12-04T03:00:19;23.35;;;16.20;;
59854;SDS011;45732;52.850;6.896;2023-12-04T03:02:44;23.20;;;15.93;;
59854;SDS011;45732;52.850;6.896;2023-12-04T03:05:10;24.23;;;17.45;;
59854;SDS011;45732;52.850;6.896;2023-12-04T03:07:36;26.83;;;17.00;;
59854;SDS011;45732;52.850;6.896;2023-12-04T03:10:01;23.92;;;16.58;;
59854;SDS011;45732;52.850;6.896;2023-12-04T03:12:27;23.20;;;16.50;;
59854;SDS011;45732;52.850;6.896;2023-12-04T03:14:53;22.33;;;16.00;;
59854;SDS011;45732;52.850;6.896;2023-12-04T03:17:18;23.65;;;16.15;;
59854;SDS011;45732;52.850;6.896;2023-12-04T03:19:44;24.13;;;16.40;;
59854;SDS011;45732;52.850;6.896;2023-12-04T03:22:11;22.08;;;15.80;;
59854;SDS011;45732;52.850;6.896;2023-12-04T03:24:37;24.73;;;16.88;;
59854;SDS011;45732;52.850;6.896;2023-12-04T03:27:03;24.20;;;16.85;;
59854;SDS011;45732;52.850;6.896;2023-12-04T03:29:29;22.83;;;16.10;;
59854;SDS011;45732;52.850;6.896;2023-12-04T03:31:54;23.83;;;16.48;;
59854;SDS011;45732;52.850;6.896;2023-12-04T03:34:20;23.92;;;16.60;;
59854;SDS011;45732;52.850;6.896;2023-12-04T03:36:45;24.98;;;15.93;;
59854;SDS011;45732;52.850;6.896;2023-12-04T03:39:11;24.35;;;16.73;;
59854;SDS011;45732;52.850;6.896;2023-12-04T03:41:37;25.80;;;18.02;;
59854;SDS011;45732;52.850;6.896;2023-12-04T03:44:03;26.00;;;16.60;;
59854;SDS011;45732;52.850;6.896;2023-12-04T03:46:28;23.80;;;16.55;;
59854;SDS011;45732;52.850;6.896;2023-12-04T03:48:55;24.27;;;16.75;;
59854;SDS011;45732;52.850;6.896;2023-12-04T03:51:20;25.20;;;17.25;;
59854;SDS011;45732;52.850;6.896;2023-12-04T03:53:46;23.83;;;16.52;;
59854;SDS011;45732;52.850;6.896;2023-12-04T03:56:12;23.58;;;16.30;;
59854;SDS011;45732;52.850;6.896;2023-12-04T03:58:37;22.90;;;16.02;;
59854;SDS011;45732;52.850;6.896;2023-12-04T04:01:03;25.55;;;17.40;;
59854;SDS011;45732;52.850;6.896;2023-12-04T04:03:29;24.77;;;17.25;;
59854;SDS011;45732;52.850;6.896;2023-12-04T04:05:55;24.73;;;16.25;;
59854;SDS011;45732;52.850;6.896;2023-12-04T04:08:21;23.73;;;16.05;;
59854;SDS011;45732;52.850;6.896;2023-12-04T04:10:46;24.08;;;16.63;;
59854;SDS011;45732;52.850;6.896;2023-12-04T04:13:12;22.80;;;16.65;;
59854;SDS011;45732;52.850;6.896;2023-12-04T04:15:37;24.27;;;16.40;;
59854;SDS011;45732;52.850;6.896;2023-12-04T04:18:03;22.17;;;15.60;;
59854;SDS011;45732;52.850;6.896;2023-12-04T04:20:29;23.88;;;16.60;;
59854;SDS011;45732;52.850;6.896;2023-12-04T04:22:54;24.25;;;16.83;;
59854;SDS011;45732;52.850;6.896;2023-12-04T04:25:20;23.65;;;15.90;;
59854;SDS011;45732;52.850;6.896;2023-12-04T04:27:48;24.42;;;16.05;;
59854;SDS011;45732;52.850;6.896;2023-12-04T04:30:14;22.50;;;15.30;;
59854;SDS011;45732;52.850;6.896;2023-12-04T04:32:39;25.63;;;16.35;;
59854;SDS011;45732;52.850;6.896;2023-12-04T04:35:06;26.23;;;15.75;;
59854;SDS011;45732;52.850;6.896;2023-12-04T04:37:32;23.90;;;16.35;;
59854;SDS011;45732;52.850;6.896;2023-12-04T04:39:58;22.95;;;16.48;;
59854;SDS011;45732;52.850;6.896;2023-12-04T04:42:23;22.75;;;15.40;;
59854;SDS011;45732;52.850;6.896;2023-12-04T04:44:49;23.60;;;16.90;;
59854;SDS011;45732;52.850;6.896;2023-12-04T04:47:15;22.52;;;16.77;;
59854;SDS011;45732;52.850;6.896;2023-12-04T04:49:40;38.30;;;34.50;;
59854;SDS011;45732;52.850;6.896;2023-12-04T04:52:07;35.90;;;32.22;;
59854;SDS011;45732;52.850;6.896;2023-12-04T04:54:32;25.05;;;18.65;;
59854;SDS011;45732;52.850;6.896;2023-12-04T04:56:58;24.25;;;17.63;;
59854;SDS011;45732;52.850;6.896;2023-12-04T04:59:24;24.27;;;16.75;;
59854;SDS011;45732;52.850;6.896;2023-12-04T05:01:49;25.60;;;17.45;;
59854;SDS011;45732;52.850;6.896;2023-12-04T05:04:15;25.50;;;17.88;;
59854;SDS011;45732;52.850;6.896;2023-12-04T05:06:41;23.88;;;16.40;;
59854;SDS011;45732;52.850;6.896;2023-12-04T05:09:07;21.88;;;15.98;;
59854;SDS011;45732;52.850;6.896;2023-12-04T05:11:32;23.00;;;16.63;;
59854;SDS011;45732;52.850;6.896;2023-12-04T05:13:58;25.35;;;19.73;;
59854;SDS011;45732;52.850;6.896;2023-12-04T05:16:24;32.00;;;28.80;;
59854;SDS011;45732;52.850;6.896;2023-12-04T05:18:49;22.23;;;16.23;;
59854;SDS011;45732;52.850;6.896;2023-12-04T05:21:15;24.52;;;18.92;;
59854;SDS011;45732;52.850;6.896;2023-12-04T05:23:41;22.02;;;15.23;;
59854;SDS011;45732;52.850;6.896;2023-12-04T05:26:07;24.40;;;20.40;;
59854;SDS011;45732;52.850;6.896;2023-12-04T05:28:33;26.70;;;20.35;;
59854;SDS011;45732;52.850;6.896;2023-12-04T05:30:59;27.52;;;22.35;;
59854;SDS011;45732;52.850;6.896;2023-12-04T05:33:25;25.77;;;19.92;;
59854;SDS011;45732;52.850;6.896;2023-12-04T05:35:51;35.20;;;31.45;;
59854;SDS011;45732;52.850;6.896;2023-12-04T05:38:18;34.83;;;31.40;;
59854;SDS011;45732;52.850;6.896;2023-12-04T05:40:43;26.85;;;20.38;;
59854;SDS011;45732;52.850;6.896;2023-12-04T05:43:09;24.30;;;17.58;;
59854;SDS011;45732;52.850;6.896;2023-12-04T05:45:35;23.33;;;16.08;;
59854;SDS011;45732;52.850;6.896;2023-12-04T05:48:01;24.83;;;16.20;;
59854;SDS011;45732;52.850;6.896;2023-12-04T05:50:27;27.33;;;20.73;;
59854;SDS011;45732;52.850;6.896;2023-12-04T05:52:52;23.77;;;18.70;;
59854;SDS011;45732;52.850;6.896;2023-12-04T05:55:18;33.97;;;30.52;;
59854;SDS011;45732;52.850;6.896;2023-12-04T05:57:45;30.33;;;27.08;;
59854;SDS011;45732;52.850;6.896;2023-12-04T06:00:11;37.72;;;33.90;;
59854;SDS011;45732;52.850;6.896;2023-12-04T06:02:43;38.90;;;34.92;;
59854;SDS011;45732;52.850;6.896;2023-12-04T06:05:09;25.90;;;18.52;;
59854;SDS011;45732;52.850;6.896;2023-12-04T06:07:38;28.58;;;21.67;;
59854;SDS011;45732;52.850;6.896;2023-12-04T06:10:04;23.65;;;18.95;;
59854;SDS011;45732;52.850;6.896;2023-12-04T06:12:30;25.90;;;20.73;;
59854;SDS011;45732;52.850;6.896;2023-12-04T06:14:56;23.70;;;17.40;;
59854;SDS011;45732;52.850;6.896;2023-12-04T06:17:23;31.20;;;26.13;;
59854;SDS011;45732;52.850;6.896;2023-12-04T06:19:49;22.30;;;15.15;;
59854;SDS011;45732;52.850;6.896;2023-12-04T06:22:15;39.33;;;35.60;;
59854;SDS011;45732;52.850;6.896;2023-12-04T06:24:43;25.80;;;20.33;;
59854;SDS011;45732;52.850;6.896;2023-12-04T06:27:10;38.47;;;34.58;;
59854;SDS011;45732;52.850;6.896;2023-12-04T06:29:40;28.75;;;23.50;;
59854;SDS011;45732;52.850;6.896;2023-12-04T06:32:06;42.67;;;38.53;;
59854;SDS011;45732;52.850;6.896;2023-12-04T06:34:32;27.80;;;24.73;;
59854;SDS011;45732;52.850;6.896;2023-12-04T06:36:59;24.63;;;16.27;;
59854;SDS011;45732;52.850;6.896;2023-12-04T06:39:27;22.85;;;15.20;;
59854;SDS011;45732;52.850;6.896;2023-12-04T06:41:57;22.10;;;14.60;;
59854;SDS011;45732;52.850;6.896;2023-12-04T06:44:24;21.50;;;14.70;;
59854;SDS011;45732;52.850;6.896;2023-12-04T06:46:50;22.40;;;15.55;;
59854;SDS011;45732;52.850;6.896;2023-12-04T06:49:17;20.02;;;13.63;;
59854;SDS011;45732;52.850;6.896;2023-12-04T06:51:43;22.63;;;15.02;;
59854;SDS011;45732;52.850;6.896;2023-12-04T06:54:09;24.20;;;14.45;;
59854;SDS011;45732;52.850;6.896;2023-12-04T06:56:37;21.23;;;14.90;;
59854;SDS011;45732;52.850;6.896;2023-12-04T06:59:03;22.48;;;15.55;;
59854;SDS011;45732;52.850;6.896;2023-12-04T07:01:29;20.90;;;13.80;;
59854;SDS011;45732;52.850;6.896;2023-12-04T07:03:54;20.48;;;13.98;;
59854;SDS011;45732;52.850;6.896;2023-12-04T07:06:20;22.98;;;15.27;;
59854;SDS011;45732;52.850;6.896;2023-12-04T07:08:46;20.17;;;13.93;;
59854;SDS011;45732;52.850;6.896;2023-12-04T07:11:12;20.08;;;13.38;;
59854;SDS011;45732;52.850;6.896;2023-12-04T07:13:40;21.73;;;14.07;;
59854;SDS011;45732;52.850;6.896;2023-12-04T07:16:07;19.10;;;13.85;;
59854;SDS011;45732;52.850;6.896;2023-12-04T07:18:33;19.35;;;13.13;;
59854;SDS011;45732;52.850;6.896;2023-12-04T07:21:00;18.27;;;13.32;;
59854;SDS011;45732;52.850;6.896;2023-12-04T07:23:26;20.48;;;13.30;;
59854;SDS011;45732;52.850;6.896;2023-12-04T07:25:51;21.45;;;14.10;;
59854;SDS011;45732;52.850;6.896;2023-12-04T07:28:17;19.27;;;13.70;;
59854;SDS011;45732;52.850;6.896;2023-12-04T07:30:43;20.30;;;13.80;;
59854;SDS011;45732;52.850;6.896;2023-12-04T07:33:09;20.85;;;13.32;;
59854;SDS011;45732;52.850;6.896;2023-12-04T07:35:34;20.17;;;13.68;;
59854;SDS011;45732;52.850;6.896;2023-12-04T07:38:00;20.08;;;13.77;;
59854;SDS011;45732;52.850;6.896;2023-12-04T07:40:26;18.58;;;13.50;;
59854;SDS011;45732;52.850;6.896;2023-12-04T07:42:53;19.63;;;13.57;;
59854;SDS011;45732;52.850;6.896;2023-12-04T07:45:18;17.98;;;12.52;;
59854;SDS011;45732;52.850;6.896;2023-12-04T07:47:45;19.42;;;13.32;;
59854;SDS011;45732;52.850;6.896;2023-12-04T07:50:11;18.38;;;12.55;;
59854;SDS011;45732;52.850;6.896;2023-12-04T07:52:36;20.35;;;13.30;;
59854;SDS011;45732;52.850;6.896;2023-12-04T07:55:02;18.85;;;13.10;;
59854;SDS011;45732;52.850;6.896;2023-12-04T07:57:29;18.55;;;12.75;;
59854;SDS011;45732;52.850;6.896;2023-12-04T07:59:55;20.75;;;13.70;;
59854;SDS011;45732;52.850;6.896;2023-12-04T08:02:20;18.85;;;13.27;;
59854;SDS011;45732;52.850;6.896;2023-12-04T08:04:46;18.48;;;12.57;;
59854;SDS011;45732;52.850;6.896;2023-12-04T08:07:12;18.83;;;12.43;;
59854;SDS011;45732;52.850;6.896;2023-12-04T08:09:38;17.38;;;12.63;;
59854;SDS011;45732;52.850;6.896;2023-12-04T08:12:04;20.23;;;13.00;;
59854;SDS011;45732;52.850;6.896;2023-12-04T08:14:30;18.52;;;12.30;;
59854;SDS011;45732;52.850;6.896;2023-12-04T08:16:56;16.73;;;11.98;;
59854;SDS011;45732;52.850;6.896;2023-12-04T08:19:21;19.25;;;13.50;;
59854;SDS011;45732;52.850;6.896;2023-12-04T08:21:48;17.88;;;12.18;;
59854;SDS011;45732;52.850;6.896;2023-12-04T08:24:14;16.67;;;11.70;;
59854;SDS011;45732;52.850;6.896;2023-12-04T08:26:43;17.98;;;11.80;;
59854;SDS011;45732;52.850;6.896;2023-12-04T08:29:10;15.95;;;11.40;;
59854;SDS011;45732;52.850;6.896;2023-12-04T08:31:36;17.08;;;11.77;;
59854;SDS011;45732;52.850;6.896;2023-12-04T08:34:02;16.90;;;10.75;;
59854;SDS011;45732;52.850;6.896;2023-12-04T08:36:28;16.30;;;11.65;;
59854;SDS011;45732;52.850;6.896;2023-12-04T08:38:53;17.13;;;11.57;;
59854;SDS011;45732;52.850;6.896;2023-12-04T08:41:19;16.42;;;11.65;;
59854;SDS011;45732;52.850;6.896;2023-12-04T08:43:45;17.02;;;11.60;;
59854;SDS011;45732;52.850;6.896;2023-12-04T08:46:12;15.13;;;10.07;;
59854;SDS011;45732;52.850;6.896;2023-12-04T08:48:40;16.48;;;10.95;;
59854;SDS011;45732;52.850;6.896;2023-12-04T08:51:07;15.90;;;11.02;;
59854;SDS011;45732;52.850;6.896;2023-12-04T08:53:34;17.27;;;11.30;;
59854;SDS011;45732;52.850;6.896;2023-12-04T08:55:59;16.38;;;10.48;;
59854;SDS011;45732;52.850;6.896;2023-12-04T08:58:25;15.15;;;10.63;;
59854;SDS011;45732;52.850;6.896;2023-12-04T09:00:51;15.00;;;10.35;;
59854;SDS011;45732;52.850;6.896;2023-12-04T09:03:16;16.33;;;10.57;;
59854;SDS011;45732;52.850;6.896;2023-12-04T09:05:44;16.77;;;9.93;;
59854;SDS011;45732;52.850;6.896;2023-12-04T09:08:09;16.30;;;10.25;;
59854;SDS011;45732;52.850;6.896;2023-12-04T09:10:35;14.85;;;9.93;;
59854;SDS011;45732;52.850;6.896;2023-12-04T09:13:01;15.50;;;10.80;;
59854;SDS011;45732;52.850;6.896;2023-12-04T09:15:26;15.80;;;10.48;;
59854;SDS011;45732;52.850;6.896;2023-12-04T09:17:52;15.02;;;9.93;;
59854;SDS011;45732;52.850;6.896;2023-12-04T09:20:18;14.07;;;9.90;;
59854;SDS011;45732;52.850;6.896;2023-12-04T09:22:44;15.25;;;9.95;;
59854;SDS011;45732;52.850;6.896;2023-12-04T09:25:10;15.60;;;9.98;;
59854;SDS011;45732;52.850;6.896;2023-12-04T09:27:36;15.02;;;9.25;;
59854;SDS011;45732;52.850;6.896;2023-12-04T09:30:01;15.88;;;9.48;;
59854;SDS011;45732;52.850;6.896;2023-12-04T09:32:27;14.80;;;9.82;;
59854;SDS011;45732;52.850;6.896;2023-12-04T09:34:53;15.07;;;9.45;;
59854;SDS011;45732;52.850;6.896;2023-12-04T09:37:19;14.85;;;9.45;;
59854;SDS011;45732;52.850;6.896;2023-12-04T09:39:44;13.15;;;8.73;;
59854;SDS011;45732;52.850;6.896;2023-12-04T09:42:10;14.85;;;9.95;;
59854;SDS011;45732;52.850;6.896;2023-12-04T09:44:38;13.80;;;9.02;;
59854;SDS011;45732;52.850;6.896;2023-12-04T09:47:05;15.98;;;9.77;;
59854;SDS011;45732;52.850;6.896;2023-12-04T09:49:32;13.63;;;9.43;;
59854;SDS011;45732;52.850;6.896;2023-12-04T09:51:58;13.73;;;8.70;;
59854;SDS011;45732;52.850;6.896;2023-12-04T09:54:28;13.38;;;8.93;;
59854;SDS011;45732;52.850;6.896;2023-12-04T09:56:55;13.93;;;9.15;;
59854;SDS011;45732;52.850;6.896;2023-12-04T09:59:22;14.43;;;9.00;;
59854;SDS011;45732;52.850;6.896;2023-12-04T10:01:51;14.45;;;9.55;;
59854;SDS011;45732;52.850;6.896;2023-12-04T10:04:17;14.70;;;9.73;;
59854;SDS011;45732;52.850;6.896;2023-12-04T10:06:43;14.98;;;9.35;;
59854;SDS011;45732;52.850;6.896;2023-12-04T10:09:10;13.05;;;9.25;;
59854;SDS011;45732;52.850;6.896;2023-12-04T10:11:41;12.80;;;8.40;;
59854;SDS011;45732;52.850;6.896;2023-12-04T10:14:17;12.77;;;7.85;;
59854;SDS011;45732;52.850;6.896;2023-12-04T10:16:43;13.40;;;8.82;;
59854;SDS011;45732;52.850;6.896;2023-12-04T10:19:23;12.45;;;8.13;;
59854;SDS011;45732;52.850;6.896;2023-12-04T10:21:51;12.55;;;8.70;;
59854;SDS011;45732;52.850;6.896;2023-12-04T10:24:36;13.18;;;8.23;;
59854;SDS011;45732;52.850;6.896;2023-12-04T10:27:09;12.63;;;8.15;;
59854;SDS011;45732;52.850;6.896;2023-12-04T10:29:46;13.75;;;8.60;;
59854;SDS011;45732;52.850;6.896;2023-12-04T10:32:17;12.93;;;8.45;;
59854;SDS011;45732;52.850;6.896;2023-12-04T10:34:47;13.02;;;8.75;;
59854;SDS011;45732;52.850;6.896;2023-12-04T10:37:13;15.43;;;8.02;;
59854;SDS011;45732;52.850;6.896;2023-12-04T10:39:46;13.20;;;8.30;;
59854;SDS011;45732;52.850;6.896;2023-12-04T10:42:15;12.73;;;7.97;;
59854;SDS011;45732;52.850;6.896;2023-12-04T10:44:58;12.50;;;7.72;;
59854;SDS011;45732;52.850;6.896;2023-12-04T10:47:25;12.13;;;7.72;;
59854;SDS011;45732;52.850;6.896;2023-12-04T10:49:52;12.40;;;7.80;;
59854;SDS011;45732;52.850;6.896;2023-12-04T10:52:18;13.13;;;8.45;;
59854;SDS011;45732;52.850;6.896;2023-12-04T10:54:45;12.13;;;7.72;;
59854;SDS011;45732;52.850;6.896;2023-12-04T10:57:11;11.80;;;7.57;;
59854;SDS011;45732;52.850;6.896;2023-12-04T10:59:41;11.45;;;7.68;;
59854;SDS011;45732;52.850;6.896;2023-12-04T11:02:08;12.43;;;7.53;;
59854;SDS011;45732;52.850;6.896;2023-12-04T11:04:45;13.20;;;7.82;;
59854;SDS011;45732;52.850;6.896;2023-12-04T11:07:15;13.27;;;7.57;;
59854;SDS011;45732;52.850;6.896;2023-12-04T11:09:43;12.13;;;7.90;;
59854;SDS011;45732;52.850;6.896;2023-12-04T11:12:10;12.23;;;8.35;;
59854;SDS011;45732;52.850;6.896;2023-12-04T11:14:42;13.82;;;7.88;;
59854;SDS011;45732;52.850;6.896;2023-12-04T11:17:12;12.18;;;7.72;;
59854;SDS011;45732;52.850;6.896;2023-12-04T11:19:54;11.43;;;7.90;;
59854;SDS011;45732;52.850;6.896;2023-12-04T11:22:25;14.40;;;7.68;;
59854;SDS011;45732;52.850;6.896;2023-12-04T11:24:50;14.45;;;8.18;;
59854;SDS011;45732;52.850;6.896;2023-12-04T11:27:16;12.95;;;7.47;;
59854;SDS011;45732;52.850;6.896;2023-12-04T11:29:43;12.90;;;7.93;;
59854;SDS011;45732;52.850;6.896;2023-12-04T11:32:16;12.25;;;8.05;;
59854;SDS011;45732;52.850;6.896;2023-12-04T11:34:54;13.48;;;8.38;;
59854;SDS011;45732;52.850;6.896;2023-12-04T11:37:21;12.18;;;7.47;;
59854;SDS011;45732;52.850;6.896;2023-12-04T11:39:49;13.40;;;8.43;;
59854;SDS011;45732;52.850;6.896;2023-12-04T11:42:22;11.73;;;7.75;;
59854;SDS011;45732;52.850;6.896;2023-12-04T11:44:49;12.90;;;7.90;;
59854;SDS011;45732;52.850;6.896;2023-12-04T11:47:20;11.77;;;8.02;;
59854;SDS011;45732;52.850;6.896;2023-12-04T11:49:46;13.32;;;8.48;;
59854;SDS011;45732;52.850;6.896;2023-12-04T11:52:12;12.95;;;8.68;;
59854;SDS011;45732;52.850;6.896;2023-12-04T11:54:56;13.73;;;8.35;;
59854;SDS011;45732;52.850;6.896;2023-12-04T11:57:26;12.88;;;8.25;;
59854;SDS011;45732;52.850;6.896;2023-12-04T12:00:07;12.23;;;8.48;;
59854;SDS011;45732;52.850;6.896;2023-12-04T12:02:34;12.85;;;8.10;;
59854;SDS011;45732;52.850;6.896;2023-12-04T12:05:00;12.07;;;7.80;;
59854;SDS011;45732;52.850;6.896;2023-12-04T12:07:27;11.90;;;7.65;;
59854;SDS011;45732;52.850;6.896;2023-12-04T12:09:52;12.15;;;7.95;;
59854;SDS011;45732;52.850;6.896;2023-12-04T12:12:19;14.50;;;7.80;;
59854;SDS011;45732;52.850;6.896;2023-12-04T12:14:45;12.27;;;8.40;;
59854;SDS011;45732;52.850;6.896;2023-12-04T12:17:11;11.77;;;7.97;;
59854;SDS011;45732;52.850;6.896;2023-12-04T12:19:38;13.00;;;7.90;;
59854;SDS011;45732;52.850;6.896;2023-12-04T12:22:04;12.95;;;7.88;;
59854;SDS011;45732;52.850;6.896;2023-12-04T12:24:29;12.00;;;7.88;;
59854;SDS011;45732;52.850;6.896;2023-12-04T12:26:55;13.05;;;8.07;;
59854;SDS011;45732;52.850;6.896;2023-12-04T12:29:21;14.52;;;8.10;;
59854;SDS011;45732;52.850;6.896;2023-12-04T12:31:46;13.35;;;7.75;;
59854;SDS011;45732;52.850;6.896;2023-12-04T12:34:12;11.60;;;7.82;;
59854;SDS011;45732;52.850;6.896;2023-12-04T12:36:39;12.00;;;7.70;;
59854;SDS011;45732;52.850;6.896;2023-12-04T12:39:05;13.55;;;8.52;;
59854;SDS011;45732;52.850;6.896;2023-12-04T12:41:33;12.20;;;8.18;;
59854;SDS011;45732;52.850;6.896;2023-12-04T12:44:00;13.20;;;9.05;;
59854;SDS011;45732;52.850;6.896;2023-12-04T12:46:27;11.98;;;8.50;;
59854;SDS011;45732;52.850;6.896;2023-12-04T12:48:53;11.85;;;7.75;;
59854;SDS011;45732;52.850;6.896;2023-12-04T12:51:19;12.88;;;8.27;;
59854;SDS011;45732;52.850;6.896;2023-12-04T12:53:45;11.75;;;8.40;;
59854;SDS011;45732;52.850;6.896;2023-12-04T12:56:11;12.48;;;8.27;;
59854;SDS011;45732;52.850;6.896;2023-12-04T12:58:36;11.38;;;8.43;;
59854;SDS011;45732;52.850;6.896;2023-12-04T13:01:02;12.25;;;8.43;;
59854;SDS011;45732;52.850;6.896;2023-12-04T13:03:28;12.23;;;8.55;;
59854;SDS011;45732;52.850;6.896;2023-12-04T13:05:56;13.57;;;8.73;;
59854;SDS011;45732;52.850;6.896;2023-12-04T13:08:22;12.70;;;8.77;;
59854;SDS011;45732;52.850;6.896;2023-12-04T13:10:48;12.95;;;8.48;;
59854;SDS011;45732;52.850;6.896;2023-12-04T13:13:15;11.73;;;8.05;;
59854;SDS011;45732;52.850;6.896;2023-12-04T13:15:41;12.70;;;7.97;;
59854;SDS011;45732;52.850;6.896;2023-12-04T13:18:08;13.38;;;8.32;;
59854;SDS011;45732;52.850;6.896;2023-12-04T13:20:34;13.65;;;8.48;;
59854;SDS011;45732;52.850;6.896;2023-12-04T13:23:00;12.32;;;8.38;;
59854;SDS011;45732;52.850;6.896;2023-12-04T13:25:26;12.38;;;8.98;;
59854;SDS011;45732;52.850;6.896;2023-12-04T13:27:53;12.90;;;8.35;;
59854;SDS011;45732;52.850;6.896;2023-12-04T13:30:19;12.50;;;8.27;;
59854;SDS011;45732;52.850;6.896;2023-12-04T13:32:45;13.35;;;9.30;;
59854;SDS011;45732;52.850;6.896;2023-12-04T13:35:11;12.48;;;8.65;;
59854;SDS011;45732;52.850;6.896;2023-12-04T13:37:36;11.80;;;8.05;;
59854;SDS011;45732;52.850;6.896;2023-12-04T13:40:04;12.95;;;8.75;;
59854;SDS011;45732;52.850;6.896;2023-12-04T13:42:37;11.25;;;7.70;;
59854;SDS011;45732;52.850;6.896;2023-12-04T13:45:22;13.73;;;8.75;;
59854;SDS011;45732;52.850;6.896;2023-12-04T13:47:48;12.60;;;8.82;;
59854;SDS011;45732;52.850;6.896;2023-12-04T13:50:14;12.52;;;7.93;;
59854;SDS011;45732;52.850;6.896;2023-12-04T13:52:40;13.13;;;8.23;;
59854;SDS011;45732;52.850;6.896;2023-12-04T13:55:08;12.80;;;8.30;;
59854;SDS011;45732;52.850;6.896;2023-12-04T13:57:45;11.43;;;7.90;;
59854;SDS011;45732;52.850;6.896;2023-12-04T14:00:24;11.65;;;8.05;;
59854;SDS011;45732;52.850;6.896;2023-12-04T14:02:50;11.13;;;7.93;;
59854;SDS011;45732;52.850;6.896;2023-12-04T14:05:25;12.75;;;8.70;;
59854;SDS011;45732;52.850;6.896;2023-12-04T14:07:51;12.13;;;7.88;;
59854;SDS011;45732;52.850;6.896;2023-12-04T14:10:16;14.38;;;8.57;;
59854;SDS011;45732;52.850;6.896;2023-12-04T14:12:42;12.45;;;8.55;;
59854;SDS011;45732;52.850;6.896;2023-12-04T14:15:08;11.38;;;7.53;;
59854;SDS011;45732;52.850;6.896;2023-12-04T14:17:34;11.45;;;7.90;;
59854;SDS011;45732;52.850;6.896;2023-12-04T14:20:00;11.73;;;7.88;;
59854;SDS011;45732;52.850;6.896;2023-12-04T14:22:27;11.88;;;8.10;;
59854;SDS011;45732;52.850;6.896;2023-12-04T14:24:53;11.18;;;7.50;;